createdAt,value
2019-01-12T00:00:33.111Z,82.59
2019-01-12T00:05:27.820Z,82.55
2019-01-12T00:10:22.409Z,83.58
2019-01-12T00:15:17.068Z,84.12
2019-01-12T00:20:11.824Z,84.39
2019-01-12T00:25:08.840Z,84.86
2019-01-12T00:30:04.386Z,84.99
2019-01-12T00:34:59.024Z,85.50
2019-01-12T00:39:53.594Z,85.42
2019-01-12T00:44:48.253Z,84.45
2019-01-12T00:49:42.848Z,83.92
2019-01-12T00:54:38.714Z,83.74
2019-01-12T00:59:33.514Z,83.84
2019-01-12T01:04:28.103Z,83.81
2019-01-12T01:09:22.811Z,83.62
2019-01-12T01:14:17.393Z,84.23
2019-01-12T01:19:11.985Z,84.91
2019-01-12T01:24:06.645Z,85.15
2019-01-12T01:29:01.226Z,85.30
2019-01-12T01:33:55.823Z,85.63
2019-01-12T01:38:50.428Z,86.09
2019-01-12T01:43:45.012Z,85.28
2019-01-12T01:48:39.606Z,85.06
2019-01-12T01:53:34.191Z,85.13
2019-01-12T01:58:28.777Z,85.07
2019-01-12T02:03:23.379Z,85.40
2019-01-12T02:08:18.022Z,85.31
2019-01-12T02:13:12.618Z,85.40
2019-01-12T02:18:07.303Z,85.27
2019-01-12T02:23:01.894Z,85.04
2019-01-12T02:27:56.553Z,84.80
2019-01-12T02:32:51.131Z,85.07
2019-01-12T02:37:45.726Z,85.08
2019-01-12T02:42:40.314Z,85.13
2019-01-12T02:47:34.922Z,85.70
2019-01-12T02:52:29.549Z,86.00
2019-01-12T02:57:24.172Z,86.24
2019-01-12T03:02:18.735Z,86.23
2019-01-12T03:07:13.385Z,86.10
2019-01-12T03:12:08.049Z,86.08
2019-01-12T03:17:02.748Z,85.82
2019-01-12T03:21:57.338Z,85.06
2019-01-12T03:26:51.947Z,85.14
2019-01-12T03:31:46.601Z,84.94
2019-01-12T03:36:41.388Z,84.64
2019-01-12T03:41:36.181Z,84.54
2019-01-12T03:46:30.783Z,84.74
2019-01-12T03:51:25.373Z,84.41
2019-01-12T03:56:19.966Z,84.61
2019-01-12T04:01:14.572Z,84.38
2019-01-12T04:06:09.186Z,84.60
2019-01-12T04:11:03.869Z,84.70
2019-01-12T04:15:58.461Z,84.55
2019-01-12T04:20:53.059Z,84.78
2019-01-12T04:25:47.667Z,84.72
2019-01-12T04:30:42.236Z,84.81
2019-01-12T04:35:36.840Z,84.99
2019-01-12T04:40:31.488Z,85.21
2019-01-12T04:45:26.096Z,84.62
2019-01-12T04:50:20.738Z,84.88
2019-01-12T04:55:15.963Z,84.80
2019-01-12T05:00:14.795Z,84.20
2019-01-12T05:05:09.574Z,84.38
2019-01-12T05:10:06.674Z,84.04
2019-01-12T05:15:01.308Z,83.74
2019-01-12T05:19:55.914Z,83.27
2019-01-12T05:24:50.623Z,83.97
2019-01-12T05:29:45.202Z,84.20
2019-01-12T05:34:39.813Z,83.95
2019-01-12T05:39:34.420Z,82.99
2019-01-12T05:44:29.050Z,83.59
2019-01-12T05:49:23.649Z,83.67
2019-01-12T05:54:18.242Z,83.54
2019-01-12T05:59:12.873Z,83.57
2019-01-12T06:04:07.482Z,83.23
2019-01-12T06:09:02.084Z,83.32
2019-01-12T06:13:56.679Z,83.17
2019-01-12T06:18:51.268Z,83.09
2019-01-12T06:23:45.857Z,83.05
2019-01-12T06:28:40.442Z,82.20
2019-01-12T06:33:35.104Z,82.68
2019-01-12T06:38:29.743Z,82.19
2019-01-12T06:43:24.337Z,82.18
2019-01-12T06:48:18.914Z,82.62
2019-01-12T06:53:13.532Z,82.53
2019-01-12T06:58:08.110Z,82.55
2019-01-12T07:03:02.726Z,82.38
2019-01-12T07:07:57.309Z,82.61
2019-01-12T07:12:51.913Z,82.73
2019-01-12T07:17:46.578Z,82.54
2019-01-12T07:22:41.316Z,82.62
2019-01-12T07:27:35.889Z,83.37
2019-01-12T07:32:30.485Z,83.78
2019-01-12T07:37:25.138Z,84.23
2019-01-12T07:42:19.728Z,84.67
2019-01-12T07:47:14.410Z,85.15
2019-01-12T07:52:09.002Z,85.36
2019-01-12T07:57:03.568Z,84.79
2019-01-12T08:01:58.182Z,84.91
2019-01-12T08:06:52.751Z,84.10
2019-01-12T08:11:47.374Z,83.20
2019-01-12T08:16:41.962Z,83.31
2019-01-12T08:21:36.586Z,83.33
2019-01-12T08:26:31.484Z,83.01
2019-01-12T08:31:26.136Z,83.28
2019-01-12T08:36:20.771Z,83.62
2019-01-12T08:41:15.372Z,82.87
2019-01-12T08:46:10.012Z,82.37
2019-01-12T08:51:04.912Z,81.54
2019-01-12T08:55:59.531Z,81.22
2019-01-12T09:00:54.143Z,80.54
2019-01-12T09:05:48.739Z,81.07
2019-01-12T09:10:43.408Z,80.92
2019-01-12T09:15:38.017Z,79.75
2019-01-12T09:20:32.637Z,79.17
2019-01-12T09:25:27.401Z,78.39
2019-01-12T09:30:22.426Z,78.07
2019-01-12T09:35:17.547Z,78.29
2019-01-12T09:40:17.997Z,76.88
2019-01-12T09:45:15.877Z,77.88
2019-01-12T09:50:17.215Z,76.97
2019-01-12T09:55:12.037Z,76.55
2019-01-12T10:00:22.367Z,76.20
2019-01-12T10:05:16.940Z,76.01
2019-01-12T10:10:16.116Z,75.05
2019-01-12T10:15:12.306Z,75.12
2019-01-12T10:20:14.457Z,75.62
2019-01-12T10:25:10.674Z,75.59
2019-01-12T10:30:09.860Z,75.70
2019-01-12T10:35:07.280Z,75.62
2019-01-12T10:40:01.894Z,74.80
2019-01-12T10:44:56.502Z,74.78
2019-01-12T10:49:51.097Z,74.94
2019-01-12T10:54:45.742Z,75.04
2019-01-12T10:59:40.356Z,75.47
2019-01-12T11:04:34.941Z,76.52
2019-01-12T11:09:29.585Z,76.40
2019-01-12T11:14:24.177Z,76.61
2019-01-12T11:19:19.000Z,75.94
2019-01-12T11:24:13.593Z,77.51
2019-01-12T11:29:08.265Z,77.79
2019-01-12T11:34:02.894Z,77.75
2019-01-12T11:38:57.603Z,77.82
2019-01-12T11:43:52.175Z,77.96
2019-01-12T11:48:46.782Z,78.10
2019-01-12T11:53:41.457Z,79.14
2019-01-12T11:58:36.058Z,79.29
2019-01-12T12:03:30.645Z,79.19
2019-01-12T12:08:25.273Z,80.35
2019-01-12T12:13:19.881Z,80.12
2019-01-12T12:18:14.485Z,79.83
2019-01-12T12:23:09.064Z,79.17
2019-01-12T12:28:03.802Z,79.22
2019-01-12T12:32:58.544Z,79.54
2019-01-12T12:37:53.414Z,78.84
2019-01-12T12:42:47.991Z,78.68
2019-01-12T12:47:42.771Z,78.97
2019-01-12T12:52:37.353Z,79.39
2019-01-12T12:57:33.079Z,80.54
2019-01-12T13:02:27.778Z,81.32
2019-01-12T13:07:22.418Z,81.26
2019-01-12T13:12:17.040Z,81.10
2019-01-12T13:17:11.644Z,80.40
2019-01-12T13:22:06.480Z,79.80
2019-01-12T13:27:01.071Z,78.74
2019-01-12T13:31:55.724Z,78.92
2019-01-12T13:36:50.331Z,78.93
2019-01-12T13:41:44.939Z,79.71
2019-01-12T13:46:39.565Z,80.44
2019-01-12T13:51:34.174Z,80.27
2019-01-12T13:56:28.883Z,80.44
2019-01-12T14:01:23.558Z,80.70
2019-01-12T14:06:18.157Z,80.38
2019-01-12T14:11:12.730Z,79.74
2019-01-12T14:16:07.535Z,79.68
2019-01-12T14:21:02.268Z,80.29
2019-01-12T14:25:56.938Z,79.85
2019-01-12T14:30:51.573Z,80.36
2019-01-12T14:35:46.169Z,80.06
2019-01-12T14:40:40.769Z,79.86
2019-01-12T14:45:35.557Z,80.44
2019-01-12T14:50:30.146Z,80.65
2019-01-12T14:55:24.810Z,80.54
2019-01-12T15:00:25.626Z,80.10
2019-01-12T15:05:23.399Z,80.52
2019-01-12T15:10:20.807Z,80.70
2019-01-12T15:15:17.986Z,80.87
2019-01-12T15:20:19.887Z,81.31
2019-01-12T15:25:15.384Z,81.13
2019-01-12T15:30:17.464Z,81.75
2019-01-12T15:35:12.127Z,81.61
2019-01-12T15:40:14.052Z,81.99
2019-01-12T15:45:13.235Z,82.36
2019-01-12T15:50:17.830Z,81.69
2019-01-12T15:55:12.723Z,82.05
2019-01-12T16:00:22.927Z,82.02
2019-01-12T16:05:17.824Z,82.84
2019-01-12T16:10:14.861Z,83.07
2019-01-12T16:15:16.614Z,83.25
2019-01-12T16:20:22.345Z,82.74
2019-01-12T16:25:17.863Z,82.86
2019-01-12T16:30:21.278Z,83.06
2019-01-12T16:35:16.093Z,82.79
2019-01-12T16:40:15.270Z,82.79
2019-01-12T16:45:11.365Z,82.19
2019-01-12T16:50:08.518Z,81.50
2019-01-12T16:55:03.175Z,81.33
2019-01-12T16:59:57.859Z,81.30
2019-01-12T17:04:52.511Z,80.98
2019-01-12T17:09:47.093Z,80.10
2019-01-12T17:14:41.692Z,79.51
2019-01-12T17:19:36.336Z,78.74
2019-01-12T17:24:30.921Z,78.98
2019-01-12T17:29:25.543Z,79.17
2019-01-12T17:34:20.165Z,79.07
2019-01-12T17:39:14.742Z,79.46
2019-01-12T17:44:09.407Z,79.74
2019-01-12T17:49:04.109Z,79.90
2019-01-12T17:53:58.720Z,80.02
2019-01-12T17:58:53.319Z,79.85
2019-01-12T18:03:47.920Z,80.12
2019-01-12T18:08:42.509Z,80.25
2019-01-12T18:13:37.099Z,79.99
2019-01-12T18:18:31.723Z,79.31
2019-01-12T18:23:26.379Z,78.33
2019-01-12T18:28:20.975Z,78.25
2019-01-12T18:33:15.545Z,78.03
2019-01-12T18:38:10.220Z,77.56
2019-01-12T18:43:04.993Z,77.56
2019-01-12T18:47:59.636Z,77.86
2019-01-12T18:52:54.762Z,78.02
2019-01-12T18:57:49.370Z,77.66
2019-01-12T19:02:44.071Z,77.73
2019-01-12T19:07:38.658Z,76.80
2019-01-12T19:12:33.258Z,76.09
2019-01-12T19:17:27.847Z,76.45
2019-01-12T19:22:22.487Z,76.13
2019-01-12T19:27:17.082Z,76.64
2019-01-12T19:32:11.675Z,77.82
2019-01-12T19:37:06.359Z,79.44
2019-01-12T19:42:00.956Z,79.73
2019-01-12T19:46:55.525Z,80.41
2019-01-12T19:51:50.123Z,81.79
2019-01-12T19:56:44.706Z,82.87
2019-01-12T20:01:39.287Z,82.83
2019-01-12T20:06:33.967Z,82.34
2019-01-12T20:11:28.624Z,83.44
2019-01-12T20:16:23.206Z,84.05
2019-01-12T20:21:17.797Z,85.13
2019-01-12T20:26:12.429Z,85.00
2019-01-12T20:31:45.513Z,85.15
2019-01-12T20:36:53.147Z,85.26
2019-01-12T20:42:35.564Z,85.95
2019-01-12T20:47:43.557Z,86.45
2019-01-12T20:52:54.663Z,86.26
2019-01-12T20:58:12.012Z,86.89
2019-01-12T21:03:16.937Z,86.39
2019-01-12T21:08:19.019Z,86.79
2019-01-12T21:13:48.286Z,87.51
2019-01-12T21:18:42.895Z,87.10
2019-01-12T21:23:37.480Z,87.31
2019-01-12T21:28:32.062Z,86.89
2019-01-12T21:33:26.773Z,86.14
2019-01-12T21:38:21.353Z,86.34
2019-01-12T21:43:15.947Z,86.39
2019-01-12T21:48:10.547Z,87.46
2019-01-12T21:53:05.322Z,87.59
2019-01-12T21:57:59.931Z,87.95
2019-01-12T22:02:54.511Z,87.44
2019-01-12T22:07:49.083Z,87.61
2019-01-12T22:12:43.685Z,87.92
2019-01-12T22:17:38.333Z,88.16
2019-01-12T22:22:32.933Z,88.39
2019-01-12T22:27:27.515Z,88.07
2019-01-12T22:32:22.228Z,87.77
2019-01-12T22:37:16.820Z,87.91
2019-01-12T22:42:11.418Z,87.94
2019-01-12T22:47:06.002Z,87.65
2019-01-12T22:52:00.596Z,87.81
2019-01-12T22:56:55.189Z,87.72
2019-01-12T23:01:50.883Z,87.73
2019-01-12T23:06:45.471Z,88.03
2019-01-12T23:11:40.138Z,88.08
2019-01-12T23:16:34.740Z,88.17
2019-01-12T23:21:29.386Z,87.77
2019-01-12T23:26:24.138Z,87.51
2019-01-12T23:31:18.805Z,88.09
2019-01-12T23:36:13.410Z,87.41
2019-01-12T23:41:08.040Z,87.25
2019-01-12T23:46:02.736Z,87.27
2019-01-12T23:50:57.334Z,87.29
2019-01-12T23:55:51.937Z,87.70
